Terminal Aerodrome Forecast
Issued by NWS

Home | Current Version | Previous Version | Text Only | Print | Product List | Glossary On
Versions: 1 2 3 4 5 6 7 8 9 10 11 12
250
FTUS45 KVEF 251120
TAFEED
TAF
KEED 251120Z 2512/2612 VRB06KT P6SM SKC
     FM252000 20011G18KT P6SM SCT080
     FM260100 25010KT P6SM BKN080
     FM260800 VRB05KT P6SM SCT250=

USA.gov is the U.S. government's official web portal to all federal, state and local government web resources and services.